createdAt,value
2022-08-19T00:00:11.816Z,100229.73
2022-08-19T00:02:59.784Z,100230.56
2022-08-19T00:05:27.751Z,100230.55
2022-08-19T00:07:55.587Z,100228.36
2022-08-19T00:10:25.608Z,100227.08
2022-08-19T00:12:53.921Z,100225.63
2022-08-19T00:15:23.024Z,100225.33
2022-08-19T00:17:51.337Z,100222.27
2022-08-19T00:20:22.051Z,100223.98
2022-08-19T00:22:50.011Z,100224.47
2022-08-19T00:25:18.179Z,100224.98
2022-08-19T00:28:00.247Z,100221.34
2022-08-19T00:30:31.390Z,100221.77
2022-08-19T00:32:59.696Z,100222.35
2022-08-19T00:35:28.433Z,100223.30
2022-08-19T00:37:57.568Z,100223.67
2022-08-19T00:40:26.183Z,100225.02
2022-08-19T00:42:55.043Z,100227.84
2022-08-19T00:45:29.259Z,100223.98
2022-08-19T00:47:57.565Z,100218.34
2022-08-19T00:50:25.764Z,100221.77
2022-08-19T00:52:54.800Z,100215.02
2022-08-19T00:55:26.669Z,100230.96
2022-08-19T00:58:00.637Z,100225.71
2022-08-19T01:00:29.558Z,100237.32
2022-08-19T01:02:57.757Z,100242.66
2022-08-19T01:05:30.001Z,100241.92
2022-08-19T01:08:01.759Z,100240.91
2022-08-19T01:10:40.442Z,100241.59
2022-08-19T01:13:08.907Z,100240.08
2022-08-19T01:15:44.965Z,100233.77
2022-08-19T01:18:16.309Z,100237.25
2022-08-19T01:20:44.616Z,100237.76
2022-08-19T01:23:13.828Z,100238.62
2022-08-19T01:25:52.404Z,100236.76
2022-08-19T01:28:40.030Z,100237.73
2022-08-19T01:31:27.019Z,100232.85
2022-08-19T01:33:57.775Z,100235.20
2022-08-19T01:36:27.161Z,100224.10
2022-08-19T01:38:56.377Z,100233.41
2022-08-19T01:41:24.688Z,100231.11
2022-08-19T01:44:13.720Z,100229.94
2022-08-19T01:46:43.516Z,100222.95
2022-08-19T01:49:11.757Z,100224.94
2022-08-19T01:51:40.578Z,100220.16
2022-08-19T01:54:22.888Z,100218.59
2022-08-19T01:57:02.618Z,100223.96
2022-08-19T01:59:32.288Z,100222.81
2022-08-19T02:02:00.302Z,100221.59
2022-08-19T02:04:28.241Z,100217.64
2022-08-19T02:06:56.277Z,100214.85
2022-08-19T02:09:24.196Z,100211.52
2022-08-19T02:11:52.490Z,100205.00
2022-08-19T02:14:20.441Z,100210.63
2022-08-19T02:16:48.903Z,100212.61
2022-08-19T02:19:16.833Z,100213.19
2022-08-19T02:21:45.056Z,100216.21
2022-08-19T03:49:01.898Z,100238.20
2022-08-19T03:51:33.987Z,100238.77
2022-08-19T03:54:05.752Z,100239.31
2022-08-19T03:56:36.319Z,100235.88
2022-08-19T03:59:06.546Z,100230.80
2022-08-19T04:01:36.413Z,100233.17
2022-08-19T04:04:04.983Z,100226.70
2022-08-19T04:06:36.296Z,100227.73
2022-08-19T04:09:12.118Z,100223.16
2022-08-19T04:11:45.102Z,100220.22
2022-08-19T04:14:19.595Z,100215.54
2022-08-19T04:16:49.216Z,100217.73
2022-08-19T04:19:18.521Z,100217.61
2022-08-19T04:21:51.416Z,100221.95
2022-08-19T04:24:20.406Z,100221.05
2022-08-19T04:26:49.247Z,100222.17
2022-08-19T04:29:26.366Z,100224.27
2022-08-19T04:31:56.664Z,100227.06
2022-08-19T04:34:27.293Z,100225.61
2022-08-19T04:36:57.140Z,100224.73
2022-08-19T04:39:48.502Z,100222.55
2022-08-19T04:42:38.463Z,100230.05
2022-08-19T04:45:15.311Z,100227.17
2022-08-19T04:47:48.282Z,100227.08
2022-08-19T04:50:27.799Z,100227.92
2022-08-19T04:52:57.513Z,100228.42
2022-08-19T04:55:28.949Z,100195.39
2022-08-19T04:57:56.864Z,100222.02
2022-08-19T05:00:24.946Z,100222.27
2022-08-19T05:02:52.967Z,100223.66
2022-08-19T05:05:21.954Z,100224.91
2022-08-19T05:07:49.887Z,100232.25
2022-08-19T05:10:18.650Z,100231.99
2022-08-19T05:12:46.811Z,100236.48
2022-08-19T05:15:14.898Z,100233.02
2022-08-19T05:18:02.832Z,100230.09
2022-08-19T05:20:49.769Z,100229.70
2022-08-19T05:23:22.167Z,100227.23
2022-08-19T05:25:51.727Z,100224.23
2022-08-19T05:28:21.490Z,100224.80
2022-08-19T05:30:51.990Z,100218.83
2022-08-19T05:33:20.399Z,100225.42
2022-08-19T05:35:50.505Z,100228.85
2022-08-19T05:38:18.990Z,100236.74
2022-08-19T05:40:49.271Z,100244.55
2022-08-19T05:43:17.818Z,100245.97
2022-08-19T05:45:45.734Z,100245.36
2022-08-19T05:48:14.355Z,100239.83
2022-08-19T05:50:43.089Z,100232.81
2022-08-19T05:53:11.130Z,100224.45
2022-08-19T05:55:42.298Z,100215.56
2022-08-19T05:58:11.303Z,100213.02
2022-08-19T06:00:39.225Z,100216.90
2022-08-19T06:03:11.392Z,100217.56
2022-08-19T06:05:44.808Z,100225.59
2022-08-19T06:08:33.767Z,100233.58
2022-08-19T06:11:21.073Z,100232.27
2022-08-19T06:13:59.717Z,100225.14
2022-08-19T06:16:30.182Z,100200.71
2022-08-19T06:19:01.611Z,100234.31
2022-08-19T06:21:30.985Z,100246.23
2022-08-19T06:23:59.767Z,100242.71
2022-08-19T06:26:28.714Z,100242.04
2022-08-19T06:28:56.728Z,100247.59
2022-08-19T06:31:28.058Z,100254.38
2022-08-19T06:33:56.302Z,100241.95
2022-08-19T06:36:31.132Z,100246.55
2022-08-19T06:39:00.135Z,100240.73
2022-08-19T06:41:28.703Z,100245.15
2022-08-19T06:43:57.426Z,100241.42
2022-08-19T06:46:27.506Z,100241.41
2022-08-19T06:48:55.937Z,100245.55
2022-08-19T06:51:24.954Z,100241.66
2022-08-19T06:53:55.684Z,100237.42
2022-08-19T06:56:35.828Z,100243.16
2022-08-19T06:59:07.146Z,100245.28
2022-08-19T07:01:40.519Z,100243.38
2022-08-19T07:04:12.111Z,100245.58
2022-08-19T07:06:44.226Z,100248.66
2022-08-19T07:09:18.367Z,100247.10
2022-08-19T07:11:49.197Z,100238.10
2022-08-19T07:14:20.291Z,100229.48
2022-08-19T07:16:51.374Z,100225.98
2022-08-19T07:19:20.570Z,100219.38
2022-08-19T07:21:53.652Z,100218.84
2022-08-19T07:24:26.226Z,100223.27
2022-08-19T07:26:56.719Z,100222.22
2022-08-19T07:29:25.789Z,100207.29
2022-08-19T07:31:57.918Z,100216.96
2022-08-19T07:34:30.424Z,100212.38
2022-08-19T07:36:58.998Z,100211.91
2022-08-19T07:39:30.540Z,100220.06
2022-08-19T07:42:01.290Z,100220.40
2022-08-19T07:44:29.508Z,100224.28
2022-08-19T07:47:01.010Z,100225.27
2022-08-19T07:49:29.506Z,100230.17
2022-08-19T07:52:02.438Z,100228.54
2022-08-19T07:54:35.342Z,100223.02
2022-08-19T07:57:04.981Z,100213.68
2022-08-19T07:59:32.885Z,100214.66
2022-08-19T08:02:01.644Z,100216.77
2022-08-19T08:04:49.819Z,100219.09
2022-08-19T08:07:36.885Z,100215.80
2022-08-19T08:10:20.835Z,100212.78
2022-08-19T08:13:09.383Z,100213.91
2022-08-19T08:15:42.872Z,100213.08
2022-08-19T08:18:15.141Z,100211.98
2022-08-19T08:20:43.248Z,100214.77
2022-08-19T08:23:23.570Z,100214.41
2022-08-19T08:25:53.490Z,100220.28
2022-08-19T08:28:22.031Z,100226.52
2022-08-19T08:30:51.626Z,100228.29
2022-08-19T08:33:34.090Z,100231.52
2022-08-19T08:36:06.175Z,100237.64
2022-08-19T08:38:42.746Z,100237.92
2022-08-19T08:41:38.490Z,100238.31
2022-08-19T08:44:07.127Z,100237.02
2022-08-19T08:46:52.772Z,100226.98
2022-08-19T08:49:47.869Z,100232.27
2022-08-19T08:52:33.319Z,100232.93
2022-08-19T08:55:10.114Z,100229.95
2022-08-19T08:57:56.181Z,100224.77
2022-08-19T09:00:29.924Z,100221.59
2022-08-19T09:03:16.451Z,100223.89
2022-08-19T09:06:03.868Z,100236.18
2022-08-19T09:08:41.329Z,100247.91
2022-08-19T09:11:42.064Z,100252.09
2022-08-19T09:14:51.748Z,100257.42
2022-08-19T09:17:36.318Z,100261.85
2022-08-19T09:20:15.688Z,100258.92
2022-08-19T09:22:47.698Z,100258.14
2022-08-19T09:25:26.702Z,100257.83
2022-08-19T09:28:02.733Z,100254.02
2022-08-19T09:30:42.912Z,100254.98
2022-08-19T09:33:10.783Z,100255.41
2022-08-19T09:35:49.798Z,100255.66
2022-08-19T09:38:22.643Z,100259.51
2022-08-19T09:40:51.040Z,100256.16
2022-08-19T09:43:32.952Z,100252.77
2022-08-19T09:46:06.674Z,100252.01
2022-08-19T09:48:37.236Z,100251.55
2022-08-19T09:51:17.694Z,100250.40
2022-08-19T09:53:46.797Z,100247.05
2022-08-19T09:56:16.204Z,100243.45
2022-08-19T09:58:48.310Z,100245.95
2022-08-19T10:01:21.840Z,100235.63
2022-08-19T10:03:55.885Z,100240.09
2022-08-19T10:06:43.873Z,100242.02
2022-08-19T10:09:18.007Z,100236.25
2022-08-19T10:12:04.065Z,100224.58
2022-08-19T10:14:32.767Z,100231.63
2022-08-19T10:17:04.696Z,100231.92
2022-08-19T10:19:55.405Z,100232.28
2022-08-19T10:22:25.600Z,100238.66
2022-08-19T10:24:54.271Z,100208.20
2022-08-19T10:27:22.825Z,100241.39
2022-08-19T10:29:51.212Z,100234.38
2022-08-19T10:32:19.465Z,100228.11
2022-08-19T10:35:09.366Z,100228.07
2022-08-19T10:37:57.544Z,100227.16
2022-08-19T10:40:29.095Z,100228.25
2022-08-19T10:42:57.177Z,100221.52
2022-08-19T10:45:29.852Z,100218.96
2022-08-19T10:48:01.096Z,100219.15
2022-08-19T10:50:53.379Z,100218.88
2022-08-19T10:53:26.773Z,100215.54
2022-08-19T10:56:14.354Z,100210.09
2022-08-19T10:59:10.610Z,100207.73
2022-08-19T11:01:46.947Z,100210.05
2022-08-19T11:04:28.884Z,100207.98
2022-08-19T11:07:07.882Z,100201.54
2022-08-19T11:09:40.963Z,100204.52
2022-08-19T11:12:25.789Z,100198.88
2022-08-19T11:15:18.510Z,100192.10
2022-08-19T11:18:13.358Z,100191.67
2022-08-19T11:21:22.341Z,100189.61
2022-08-19T11:23:53.725Z,100185.45
2022-08-19T11:26:22.917Z,100184.00
2022-08-19T11:28:55.704Z,100175.80
2022-08-19T11:31:34.167Z,100174.66
2022-08-19T11:34:04.853Z,100169.17
2022-08-19T11:36:48.337Z,100162.13
2022-08-19T11:39:19.060Z,100159.25
2022-08-19T11:41:47.808Z,100161.60
2022-08-19T11:44:16.438Z,100160.98
2022-08-19T11:46:47.700Z,100157.18
2022-08-19T11:49:20.142Z,100156.14
2022-08-19T11:51:51.106Z,100158.67
2022-08-19T11:54:19.247Z,100151.89
2022-08-19T11:57:18.075Z,100147.52
2022-08-19T12:00:22.785Z,100142.48
2022-08-19T12:02:50.896Z,100143.45
2022-08-19T12:05:18.886Z,100143.39
2022-08-19T12:08:09.327Z,100140.77
2022-08-19T12:10:58.481Z,100133.59
2022-08-19T12:13:26.734Z,100133.14
2022-08-19T12:15:55.179Z,100134.27
2022-08-19T12:18:23.921Z,100131.09
2022-08-19T12:20:53.608Z,100126.73
2022-08-19T12:23:22.122Z,100125.48
2022-08-19T12:25:52.630Z,100121.85
2022-08-19T12:28:23.948Z,100120.60
2022-08-19T12:30:52.438Z,100117.92
2022-08-19T12:33:25.129Z,100115.20
2022-08-19T12:35:53.504Z,100109.25
2022-08-19T12:38:24.718Z,100102.76
2022-08-19T12:40:56.007Z,100101.91
2022-08-19T12:43:26.355Z,100109.19
2022-08-19T12:45:55.349Z,100105.73
2022-08-19T12:48:33.674Z,100107.63
2022-08-19T12:51:12.111Z,100093.34
2022-08-19T12:53:40.925Z,100106.81
2022-08-19T12:56:12.582Z,100107.25
2022-08-19T12:58:50.318Z,100105.55
2022-08-19T13:01:23.149Z,100098.77
2022-08-19T13:03:53.656Z,100099.83
2022-08-19T13:06:22.627Z,100105.81
2022-08-19T13:08:51.096Z,100106.86
2022-08-19T13:11:21.958Z,100106.19
2022-08-19T13:13:52.162Z,100107.23
2022-08-19T13:16:21.426Z,100104.92
2022-08-19T13:18:53.061Z,100108.09
2022-08-19T13:21:23.940Z,100106.11
2022-08-19T13:23:53.436Z,100106.14
2022-08-19T13:26:22.430Z,100109.27
2022-08-19T13:29:09.407Z,100105.98
2022-08-19T13:31:59.437Z,100109.41
2022-08-19T13:34:35.120Z,100106.27
2022-08-19T13:37:04.709Z,100103.76
2022-08-19T13:39:34.144Z,100103.42
2022-08-19T13:42:03.490Z,100105.73
2022-08-19T13:44:33.025Z,100102.52
2022-08-19T13:47:08.244Z,100097.02
2022-08-19T13:49:37.474Z,100086.35
2022-08-19T13:52:07.019Z,100092.23
2022-08-19T13:54:34.846Z,100084.16
2022-08-19T13:57:02.785Z,100093.39
2022-08-19T13:59:30.710Z,100098.88
2022-08-19T14:02:00.566Z,100099.27
2022-08-19T14:04:28.887Z,100096.38
2022-08-19T14:06:56.751Z,100096.23
2022-08-19T14:09:24.622Z,100100.16
2022-08-19T14:11:52.591Z,100100.55
2022-08-19T14:14:20.602Z,100103.52
2022-08-19T14:16:49.514Z,100106.98
2022-08-19T14:19:17.366Z,100109.84
2022-08-19T14:21:45.229Z,100106.61
2022-08-19T14:24:13.350Z,100109.79
2022-08-19T14:26:41.376Z,100117.41
2022-08-19T14:29:09.131Z,100099.63
2022-08-19T14:31:37.034Z,100113.36
2022-08-19T14:34:05.240Z,100113.95
2022-08-19T14:36:39.005Z,100107.77
2022-08-19T14:39:07.381Z,100096.36
2022-08-19T14:41:35.411Z,100104.77
2022-08-19T14:44:03.295Z,100097.20
2022-08-19T14:46:31.286Z,100096.39
2022-08-19T14:48:59.924Z,100097.27
2022-08-19T14:51:28.227Z,100097.52
2022-08-19T14:53:56.589Z,100097.36
2022-08-19T14:56:27.822Z,100097.91
2022-08-19T14:58:56.383Z,100095.44
2022-08-19T15:01:24.645Z,100096.86
2022-08-19T15:04:12.660Z,100094.39
2022-08-19T15:06:41.090Z,100096.04
2022-08-19T15:09:10.208Z,100091.81
2022-08-19T15:11:39.497Z,100088.96
2022-08-19T15:14:08.084Z,100089.77
2022-08-19T15:16:36.881Z,100086.47
2022-08-19T15:19:07.580Z,100087.05
2022-08-19T15:21:35.973Z,100079.09
2022-08-19T15:24:06.104Z,100081.92
2022-08-19T15:26:33.994Z,100079.86
2022-08-19T15:29:03.404Z,100085.42
2022-08-19T15:31:38.323Z,100085.77
2022-08-19T15:34:07.865Z,100084.70
2022-08-19T15:36:37.170Z,100081.63
2022-08-19T15:39:07.688Z,100079.77
2022-08-19T15:41:37.261Z,100080.86
2022-08-19T15:44:10.277Z,100083.17
2022-08-19T15:46:40.994Z,100082.84
2022-08-19T15:49:10.484Z,100079.64
2022-08-19T15:51:41.294Z,100077.27
2022-08-19T15:54:13.050Z,100074.44
2022-08-19T15:56:59.735Z,100074.31
2022-08-19T15:59:47.766Z,100074.39
2022-08-19T16:02:37.387Z,100067.67
2022-08-19T16:05:27.588Z,100062.05
2022-08-19T16:07:56.966Z,100058.38
2022-08-19T16:10:27.256Z,100055.75
2022-08-19T16:12:57.980Z,100057.73
2022-08-19T16:15:28.027Z,100057.31
2022-08-19T16:17:58.056Z,100060.20
2022-08-19T16:20:28.088Z,100056.96
2022-08-19T16:22:58.589Z,100041.75
2022-08-19T16:25:29.458Z,100051.95
2022-08-19T16:28:07.719Z,100035.61
2022-08-19T16:30:39.123Z,100050.75
2022-08-19T16:33:08.530Z,100051.52
2022-08-19T16:35:37.023Z,100052.61
2022-08-19T16:38:07.231Z,100053.02
2022-08-19T16:40:35.946Z,100055.67
2022-08-19T16:43:04.818Z,100057.00
2022-08-19T16:45:32.973Z,100056.59
2022-08-19T16:48:00.847Z,100058.35
2022-08-19T16:50:48.385Z,100056.54
2022-08-19T16:53:25.800Z,100054.27
2022-08-19T16:55:58.523Z,100051.14
2022-08-19T16:58:29.626Z,100046.36
2022-08-19T17:01:03.236Z,100048.61
2022-08-19T17:03:35.995Z,100040.11
2022-08-19T17:06:26.154Z,100050.88
2022-08-19T17:08:58.858Z,100055.34
2022-08-19T17:11:28.716Z,100059.58
2022-08-19T17:13:59.107Z,100057.16
2022-08-19T17:16:29.788Z,100054.05
2022-08-19T17:18:59.854Z,100048.98
2022-08-19T17:21:32.508Z,100033.50
2022-08-19T17:24:01.996Z,100051.66
2022-08-19T17:26:30.630Z,100059.30
2022-08-19T17:29:00.426Z,100056.13
2022-08-19T17:31:33.744Z,100072.11
2022-08-19T17:34:03.607Z,100075.50
2022-08-19T17:36:34.234Z,100076.24
2022-08-19T17:39:05.060Z,100086.41
2022-08-19T17:41:34.552Z,100098.49
2022-08-19T17:44:03.980Z,100104.88
2022-08-19T17:46:32.563Z,100113.54
2022-08-19T17:49:00.960Z,100117.55
2022-08-19T17:51:36.088Z,100120.71
2022-08-19T17:54:06.808Z,100128.29
2022-08-19T17:56:34.745Z,100131.64
2022-08-19T17:59:02.782Z,100137.98
2022-08-19T18:01:44.018Z,100141.11
2022-08-19T18:04:25.300Z,100145.05
2022-08-19T18:06:55.833Z,100151.04
2022-08-19T18:09:30.043Z,100155.33
2022-08-19T18:12:13.296Z,100154.59
2022-08-19T18:14:46.293Z,100147.75
2022-08-19T18:17:18.284Z,100146.92
2022-08-19T18:19:47.827Z,100146.76
2022-08-19T18:22:29.920Z,100125.51
2022-08-19T18:24:58.709Z,100144.29
2022-08-19T18:27:27.853Z,100144.08
2022-08-19T18:29:59.587Z,100143.52
2022-08-19T18:32:34.088Z,100143.44
2022-08-19T18:35:05.033Z,100138.19
2022-08-19T18:37:33.048Z,100134.29
2022-08-19T18:40:30.172Z,100132.64
2022-08-19T18:43:17.008Z,100131.59
2022-08-19T18:46:03.877Z,100130.23
2022-08-19T18:48:55.101Z,100131.27
2022-08-19T18:51:28.152Z,100124.74
2022-08-19T18:53:58.988Z,100112.37
2022-08-19T18:56:32.576Z,100119.04
2022-08-19T18:59:03.969Z,100121.30
2022-08-19T19:01:39.910Z,100120.27
2022-08-19T19:04:12.309Z,100123.24
2022-08-19T19:06:42.795Z,100119.89
2022-08-19T19:09:19.678Z,100119.30
2022-08-19T19:12:01.685Z,100121.61
2022-08-19T19:14:49.110Z,100123.52
2022-08-19T19:17:18.419Z,100122.10
2022-08-19T19:19:50.126Z,100127.13
2022-08-19T19:22:21.924Z,100133.40
2022-08-19T19:24:50.938Z,100135.66
2022-08-19T19:27:23.549Z,100137.59
2022-08-19T19:29:56.929Z,100143.84
2022-08-19T19:32:36.928Z,100146.06
2022-08-19T19:35:10.602Z,100124.98
2022-08-19T19:37:38.718Z,100149.05
2022-08-19T19:40:07.425Z,100150.01
2022-08-19T19:42:35.414Z,100152.97
2022-08-19T19:45:03.900Z,100155.41
2022-08-19T19:47:32.091Z,100157.95
2022-08-19T19:50:16.407Z,100160.45
2022-08-19T19:52:50.979Z,100162.55
2022-08-19T19:55:20.172Z,100164.82
2022-08-19T19:57:49.801Z,100166.09
2022-08-19T20:00:19.293Z,100164.40
2022-08-19T20:02:50.379Z,100159.38
2022-08-19T20:05:21.722Z,100153.42
2022-08-19T20:08:11.655Z,100156.38
2022-08-19T20:10:42.577Z,100153.38
2022-08-19T20:13:11.160Z,100147.77
2022-08-19T20:15:43.664Z,100147.94
2022-08-19T20:18:14.671Z,100151.14
2022-08-19T20:20:43.744Z,100157.16
2022-08-19T20:23:11.633Z,100160.25
2022-08-19T20:25:39.693Z,100166.69
2022-08-19T20:28:09.989Z,100168.14
2022-08-19T20:30:43.761Z,100167.30
2022-08-19T20:33:15.559Z,100171.39
2022-08-19T20:35:45.733Z,100169.42
2022-08-19T20:38:13.852Z,100186.99
2022-08-19T20:40:41.911Z,100195.90
2022-08-19T20:43:12.189Z,100193.21
2022-08-19T20:45:40.635Z,100196.16
2022-08-19T20:48:10.606Z,100191.08
2022-08-19T20:50:39.735Z,100184.87
2022-08-19T20:53:17.637Z,100176.04
2022-08-19T20:55:52.024Z,100176.23
2022-08-19T20:58:23.078Z,100179.45
2022-08-19T21:00:55.933Z,100177.38
2022-08-19T21:03:27.786Z,100193.64
2022-08-19T21:05:57.142Z,100188.84
2022-08-19T21:08:27.812Z,100190.04
2022-08-19T21:10:57.022Z,100195.45
2022-08-19T21:13:26.095Z,100193.75
2022-08-19T21:15:54.310Z,100193.55
2022-08-19T21:18:23.784Z,100186.19
2022-08-19T21:20:52.030Z,100187.85
2022-08-19T21:23:27.351Z,100183.32
2022-08-19T21:25:58.410Z,100181.24
2022-08-19T21:28:34.275Z,100180.95
2022-08-19T21:31:10.610Z,100180.77
2022-08-19T21:33:39.019Z,100173.78
2022-08-19T21:36:07.612Z,100154.05
2022-08-19T21:38:36.464Z,100172.20
2022-08-19T21:41:06.544Z,100172.84
2022-08-19T21:43:36.564Z,100174.40
2022-08-19T21:46:05.593Z,100174.13
2022-08-19T21:48:33.869Z,100171.80
2022-08-19T21:51:01.711Z,100174.49
2022-08-19T21:53:34.158Z,100171.29
2022-08-19T21:56:04.073Z,100167.83
2022-08-19T21:58:32.245Z,100162.05
2022-08-19T22:01:02.183Z,100160.22
2022-08-19T22:03:31.138Z,100157.10
2022-08-19T22:05:59.125Z,100159.79
2022-08-19T22:08:27.415Z,100170.73
2022-08-19T22:10:55.437Z,100171.09
2022-08-19T22:13:24.850Z,100171.67
2022-08-19T22:15:55.183Z,100176.13
2022-08-19T22:18:23.081Z,100175.28
2022-08-19T22:20:51.365Z,100188.47
2022-08-19T22:23:19.510Z,100188.95
2022-08-19T22:25:48.887Z,100194.00
2022-08-19T22:28:18.971Z,100194.80
2022-08-19T22:30:56.404Z,100199.27
2022-08-19T22:33:26.363Z,100205.06
2022-08-19T22:35:54.220Z,100205.77
2022-08-19T22:38:23.159Z,100206.70
2022-08-19T22:40:52.753Z,100208.15
2022-08-19T22:43:24.889Z,100208.41
2022-08-19T22:45:55.264Z,100208.99
2022-08-19T22:48:26.065Z,100210.71
2022-08-19T22:51:13.933Z,100210.47
2022-08-19T22:53:45.741Z,100212.59
2022-08-19T22:56:17.611Z,100220.01
2022-08-19T22:58:47.235Z,100232.40
2022-08-19T23:01:24.878Z,100257.66
2022-08-19T23:04:03.619Z,100278.47
2022-08-19T23:06:34.644Z,100283.29
2022-08-19T23:09:07.308Z,100261.92
2022-08-19T23:11:41.953Z,100228.78
2022-08-19T23:14:11.454Z,100224.16
2022-08-19T23:16:41.689Z,100258.25
2022-08-19T23:19:10.697Z,100270.94
2022-08-19T23:21:41.589Z,100258.09
2022-08-19T23:24:10.132Z,100242.63
2022-08-19T23:26:38.530Z,100264.13
2022-08-19T23:29:25.418Z,100274.04
2022-08-19T23:31:53.760Z,100278.49
2022-08-19T23:34:22.255Z,100288.89
2022-08-19T23:36:50.998Z,100281.10
2022-08-19T23:39:19.534Z,100275.05
2022-08-19T23:41:47.966Z,100273.52
2022-08-19T23:44:15.803Z,100280.30
2022-08-19T23:46:54.779Z,100278.16
2022-08-19T23:49:25.223Z,100277.92
2022-08-19T23:51:54.857Z,100279.77
2022-08-19T23:54:32.024Z,100277.70
2022-08-19T23:57:13.204Z,100276.98
2022-08-19T23:59:45.774Z,100275.36
